createdAt,value
2022-10-09T00:01:18.604Z,44.17
2022-10-09T00:03:47.917Z,40.20
2022-10-09T00:06:17.678Z,40.97
2022-10-09T00:08:44.667Z,44.40
2022-10-09T00:11:15.824Z,42.00
2022-10-09T00:13:43.141Z,39.83
2022-10-09T00:16:12.141Z,40.27
2022-10-09T00:18:39.294Z,41.83
2022-10-09T00:21:16.771Z,39.93
2022-10-09T00:23:43.766Z,43.10
2022-10-09T00:26:12.025Z,40.77
2022-10-09T00:28:39.218Z,42.70
2022-10-09T00:31:07.995Z,46.00
2022-10-09T00:33:36.119Z,47.47
2022-10-09T00:36:05.457Z,49.07
2022-10-09T00:38:32.759Z,45.23
2022-10-09T00:40:59.973Z,48.60
2022-10-09T00:43:41.946Z,47.03
2022-10-09T00:46:35.554Z,49.53
2022-10-09T00:49:04.892Z,49.40
2022-10-09T00:51:34.149Z,50.37
2022-10-09T00:54:04.036Z,49.97
2022-10-09T00:56:31.156Z,48.67
2022-10-09T00:58:58.863Z,49.63
2022-10-09T01:01:26.112Z,47.53
2022-10-09T01:03:53.139Z,47.20
2022-10-09T01:06:31.746Z,45.57
2022-10-09T01:09:08.786Z,46.47
2022-10-09T01:11:51.028Z,45.13
2022-10-09T01:14:27.492Z,46.37
2022-10-09T01:17:24.106Z,46.57
2022-10-09T01:19:50.952Z,46.07
2022-10-09T01:22:30.132Z,42.37
2022-10-09T01:25:06.259Z,47.57
2022-10-09T01:27:34.441Z,46.47
2022-10-09T01:30:06.029Z,44.70
2022-10-09T01:32:39.269Z,47.17
2022-10-09T01:35:08.033Z,47.80
2022-10-09T01:37:37.409Z,46.50
2022-10-09T01:40:07.484Z,47.57
2022-10-09T01:42:35.054Z,45.53
2022-10-09T01:45:02.258Z,48.90
2022-10-09T01:47:29.327Z,48.60
2022-10-09T01:50:05.666Z,48.43
2022-10-09T01:52:55.507Z,47.27
2022-10-09T01:55:25.248Z,47.40
2022-10-09T01:58:14.649Z,47.23
2022-10-09T02:00:51.663Z,48.07
2022-10-09T02:03:19.548Z,46.93
2022-10-09T02:05:50.050Z,47.27
2022-10-09T02:08:19.876Z,46.37
2022-10-09T02:10:50.636Z,48.73
2022-10-09T02:13:19.869Z,47.67
2022-10-09T02:15:58.896Z,45.53
2022-10-09T02:18:40.121Z,47.77
2022-10-09T02:21:26.305Z,48.27
2022-10-09T02:23:55.190Z,49.53
2022-10-09T02:26:22.516Z,48.80
2022-10-09T02:28:49.868Z,46.63
2022-10-09T02:31:27.602Z,46.77
2022-10-09T02:34:20.979Z,48.53
2022-10-09T02:36:48.290Z,44.77
2022-10-09T02:39:15.462Z,46.33
2022-10-09T02:41:42.475Z,47.23
2022-10-09T02:44:09.911Z,48.73
2022-10-09T02:46:38.481Z,47.40
2022-10-09T02:49:06.885Z,50.07
2022-10-09T02:51:34.226Z,49.40
2022-10-09T02:54:01.181Z,51.80
2022-10-09T02:56:28.921Z,49.07
2022-10-09T02:58:55.906Z,49.33
2022-10-09T03:01:23.444Z,50.03
2022-10-09T03:03:50.532Z,49.47
2022-10-09T03:06:23.277Z,50.03
2022-10-09T03:08:51.834Z,50.97
2022-10-09T03:11:20.899Z,49.63
2022-10-09T03:13:48.206Z,49.63
2022-10-09T03:16:18.213Z,50.17
2022-10-09T03:18:46.872Z,49.40
2022-10-09T03:21:17.133Z,49.27
2022-10-09T03:23:44.606Z,48.73
2022-10-09T03:26:14.486Z,50.27
2022-10-09T03:28:49.645Z,48.63
2022-10-09T03:31:46.540Z,49.20
2022-10-09T03:34:05.329Z,51.93
2022-10-09T03:36:32.309Z,50.13
2022-10-09T03:38:59.232Z,51.50
2022-10-09T03:41:26.205Z,51.97
2022-10-09T03:43:53.154Z,50.57
2022-10-09T03:46:20.210Z,51.37
2022-10-09T03:48:47.273Z,50.67
2022-10-09T03:51:14.247Z,51.40
2022-10-09T03:53:41.197Z,50.93
2022-10-09T03:56:08.181Z,49.70
2022-10-09T03:58:35.254Z,50.83
2022-10-09T04:01:02.332Z,50.53
2022-10-09T04:03:29.576Z,53.13
2022-10-09T04:05:56.533Z,52.90
2022-10-09T04:08:23.576Z,53.80
2022-10-09T04:10:57.584Z,52.53
2022-10-09T04:13:24.612Z,52.70
2022-10-09T04:15:52.362Z,53.67
2022-10-09T04:18:19.677Z,54.67
2022-10-09T04:20:55.334Z,54.30
2022-10-09T04:23:27.369Z,53.03
2022-10-09T04:25:59.545Z,56.30
2022-10-09T04:28:30.655Z,55.07
2022-10-09T04:30:59.087Z,53.60
2022-10-09T04:33:26.988Z,56.03
2022-10-09T04:35:55.446Z,53.07
2022-10-09T04:38:23.636Z,53.13
2022-10-09T04:41:07.100Z,57.97
2022-10-09T04:43:35.122Z,57.20
2022-10-09T04:46:06.676Z,56.10
2022-10-09T04:48:45.113Z,56.60
2022-10-09T04:51:12.588Z,55.83
2022-10-09T04:53:40.544Z,55.30
2022-10-09T04:56:11.211Z,59.17
2022-10-09T04:58:40.703Z,59.63
2022-10-09T05:01:10.019Z,62.07
2022-10-09T05:03:37.557Z,61.53
2022-10-09T05:06:07.127Z,59.03
2022-10-09T05:08:35.162Z,59.37
2022-10-09T05:11:03.924Z,57.83
2022-10-09T05:13:32.734Z,62.33
2022-10-09T05:16:10.977Z,60.80
2022-10-09T05:19:07.480Z,61.83
2022-10-09T05:21:35.658Z,59.20
2022-10-09T05:24:05.203Z,61.87
2022-10-09T05:26:34.109Z,70.37
2022-10-09T05:29:01.139Z,62.43
2022-10-09T05:31:29.513Z,58.73
2022-10-09T05:33:59.852Z,58.13
2022-10-09T05:36:26.819Z,56.17
2022-10-09T05:38:53.765Z,56.67
2022-10-09T05:41:20.729Z,55.20
2022-10-09T05:43:49.626Z,55.87
2022-10-09T05:46:24.309Z,62.87
2022-10-09T05:48:56.952Z,52.47
2022-10-09T05:51:26.789Z,53.07
2022-10-09T05:53:54.597Z,51.37
2022-10-09T05:56:30.668Z,45.67
2022-10-09T05:58:59.005Z,43.30
2022-10-09T06:01:32.196Z,42.47
2022-10-09T06:04:01.084Z,44.17
2022-10-09T06:06:31.288Z,44.00
2022-10-09T06:08:58.960Z,45.50
2022-10-09T06:11:29.234Z,44.67
2022-10-09T06:13:56.587Z,46.73
2022-10-09T06:16:25.912Z,45.67
2022-10-09T06:18:54.201Z,44.60
2022-10-09T06:21:22.073Z,45.77
2022-10-09T06:23:50.762Z,45.90
2022-10-09T06:26:18.570Z,46.60
2022-10-09T06:28:46.302Z,45.77
2022-10-09T06:31:17.922Z,47.73
2022-10-09T06:33:46.534Z,47.67
2022-10-09T06:36:19.111Z,50.50
2022-10-09T06:38:46.352Z,46.80
2022-10-09T06:41:15.797Z,50.10
2022-10-09T06:43:43.547Z,49.40
2022-10-09T06:46:12.465Z,48.37
2022-10-09T06:48:40.419Z,50.80
2022-10-09T06:51:12.596Z,48.63
2022-10-09T06:53:42.719Z,45.20
2022-10-09T06:56:10.549Z,45.90
2022-10-09T06:58:38.849Z,44.97
2022-10-09T07:01:17.276Z,46.57
2022-10-09T07:03:47.433Z,45.50
2022-10-09T07:06:22.814Z,46.23
2022-10-09T07:08:52.900Z,48.93
2022-10-09T07:11:22.590Z,50.17
2022-10-09T07:13:53.140Z,49.10
2022-10-09T07:16:41.311Z,50.57
2022-10-09T07:19:11.402Z,48.30
2022-10-09T07:21:41.299Z,42.97
2022-10-09T07:24:09.579Z,45.43
2022-10-09T07:26:39.398Z,45.27
2022-10-09T07:29:08.312Z,42.67
2022-10-09T07:31:35.593Z,41.83
2022-10-09T07:34:03.553Z,39.43
2022-10-09T07:36:30.507Z,37.50
2022-10-09T07:38:58.470Z,37.37
2022-10-09T07:41:27.665Z,36.87
2022-10-09T07:43:54.921Z,37.93
2022-10-09T07:46:23.704Z,37.47
2022-10-09T07:48:51.274Z,37.27
2022-10-09T07:51:27.185Z,36.43
2022-10-09T07:53:54.396Z,37.37
2022-10-09T07:56:32.836Z,34.93
2022-10-09T07:59:02.574Z,38.90
2022-10-09T08:01:31.344Z,36.37
2022-10-09T08:03:59.322Z,37.67
2022-10-09T08:06:26.891Z,38.90
2022-10-09T08:08:55.608Z,38.93
2022-10-09T08:11:24.013Z,39.53
2022-10-09T08:13:52.004Z,40.60
2022-10-09T08:16:20.036Z,44.83
2022-10-09T08:18:47.739Z,42.70
2022-10-09T08:21:17.276Z,40.63
2022-10-09T08:23:44.586Z,36.93
2022-10-09T08:26:16.970Z,33.03
2022-10-09T08:28:45.295Z,33.13
2022-10-09T08:31:14.115Z,31.07
2022-10-09T08:33:41.583Z,30.50
2022-10-09T08:36:10.647Z,29.23
2022-10-09T08:38:47.084Z,32.13
2022-10-09T08:41:32.965Z,32.47
2022-10-09T08:44:13.464Z,30.90
2022-10-09T08:47:14.146Z,28.97
2022-10-09T08:49:53.485Z,27.10
2022-10-09T08:52:51.685Z,25.97
2022-10-09T08:55:27.824Z,27.13
2022-10-09T08:58:01.217Z,27.60
2022-10-09T09:00:35.777Z,28.07
2022-10-09T09:03:20.586Z,28.23
2022-10-09T09:06:06.217Z,29.77
2022-10-09T09:08:44.891Z,30.17
2022-10-09T09:11:40.204Z,28.87
2022-10-09T09:14:20.356Z,28.23
2022-10-09T09:17:05.784Z,28.33
2022-10-09T09:19:38.638Z,27.57
2022-10-09T09:22:13.432Z,27.23
2022-10-09T09:24:53.900Z,26.80
2022-10-09T09:27:26.843Z,25.40
2022-10-09T09:30:11.942Z,24.47
2022-10-09T09:32:50.654Z,22.40
2022-10-09T09:35:36.789Z,22.60
2022-10-09T09:38:04.067Z,20.47
2022-10-09T09:40:37.537Z,20.37
2022-10-09T09:43:16.123Z,20.13
2022-10-09T09:45:44.239Z,17.50
2022-10-09T09:48:31.537Z,17.83
2022-10-09T09:51:16.256Z,20.50
2022-10-09T09:53:48.344Z,20.57
2022-10-09T09:56:16.229Z,22.83
2022-10-09T09:58:55.688Z,21.90
2022-10-09T10:01:29.567Z,21.53
2022-10-09T10:03:59.466Z,20.80
2022-10-09T10:06:31.085Z,19.53
2022-10-09T10:09:03.912Z,18.30
2022-10-09T10:11:32.400Z,16.57
2022-10-09T10:14:07.502Z,17.50
2022-10-09T10:16:38.443Z,17.23
2022-10-09T10:19:06.720Z,15.90
2022-10-09T10:21:41.943Z,14.37
2022-10-09T10:24:15.314Z,14.57
2022-10-09T10:27:17.637Z,14.03
2022-10-09T10:29:47.297Z,10.90
2022-10-09T10:32:37.557Z,14.77
2022-10-09T10:35:14.647Z,13.90
2022-10-09T10:37:47.796Z,13.03
2022-10-09T10:40:21.562Z,11.47
2022-10-09T10:43:13.630Z,11.57
2022-10-09T10:45:43.386Z,13.33
2022-10-09T10:48:19.636Z,11.07
2022-10-09T10:51:08.132Z,10.77
2022-10-09T10:53:59.171Z,10.80
2022-10-09T10:56:29.179Z,9.40
2022-10-09T10:59:11.491Z,8.57
2022-10-09T11:01:52.312Z,8.00
2022-10-09T11:04:29.977Z,8.37
2022-10-09T11:06:59.756Z,7.83
2022-10-09T11:09:52.269Z,8.40
2022-10-09T11:12:46.884Z,9.07
2022-10-09T11:15:19.350Z,9.17
2022-10-09T11:18:04.807Z,7.97
2022-10-09T11:20:42.479Z,8.07
2022-10-09T11:23:43.646Z,8.60
2022-10-09T11:26:33.787Z,8.83
2022-10-09T11:29:02.564Z,9.00
2022-10-09T11:31:43.105Z,8.87
2022-10-09T11:34:21.427Z,8.07
2022-10-09T11:36:48.408Z,8.70
2022-10-09T11:39:18.246Z,9.07
2022-10-09T11:41:47.605Z,9.30
2022-10-09T11:44:40.840Z,8.50
2022-10-09T11:47:39.764Z,7.80
2022-10-09T11:50:06.714Z,7.23
2022-10-09T11:53:00.617Z,8.07
2022-10-09T11:55:30.839Z,8.37
2022-10-09T11:58:22.266Z,7.97
2022-10-09T12:00:54.506Z,6.83
2022-10-09T12:03:34.977Z,5.50
2022-10-09T12:06:14.444Z,4.13
2022-10-09T12:09:07.318Z,3.53
2022-10-09T12:11:34.895Z,4.47
2022-10-09T12:14:11.496Z,3.33
2022-10-09T12:16:46.702Z,2.80
2022-10-09T12:19:35.910Z,2.50
2022-10-09T12:22:17.499Z,2.83
2022-10-09T12:24:54.866Z,2.80
2022-10-09T12:27:31.033Z,2.70
2022-10-09T12:30:05.825Z,2.70
2022-10-09T12:32:38.396Z,2.70
2022-10-09T12:35:21.851Z,2.87
2022-10-09T12:37:48.843Z,3.17
2022-10-09T12:40:21.189Z,3.20
2022-10-09T12:42:51.543Z,2.50
2022-10-09T12:45:22.586Z,3.00
2022-10-09T12:47:50.837Z,2.50
2022-10-09T12:50:30.737Z,2.70
2022-10-09T12:53:00.587Z,3.03
2022-10-09T12:55:29.361Z,2.90
2022-10-09T12:58:04.062Z,3.37
2022-10-09T13:00:33.424Z,3.00
2022-10-09T13:03:01.467Z,3.23
2022-10-09T13:05:42.564Z,6.03
2022-10-09T13:08:32.476Z,4.80
2022-10-09T13:11:31.451Z,4.37
2022-10-09T13:13:58.889Z,3.90
2022-10-09T13:16:26.703Z,3.90
2022-10-09T13:18:57.760Z,4.63
2022-10-09T13:21:35.138Z,4.50
2022-10-09T13:24:10.454Z,5.30
2022-10-09T13:26:39.188Z,5.73
2022-10-09T13:29:07.513Z,6.00
2022-10-09T13:31:36.942Z,6.03
2022-10-09T13:34:14.244Z,5.87
2022-10-09T13:36:41.369Z,5.83
2022-10-09T13:39:14.129Z,6.10
2022-10-09T13:41:43.496Z,6.10
2022-10-09T13:44:10.567Z,5.73
2022-10-09T13:46:37.579Z,6.17
2022-10-09T13:49:04.562Z,5.93
2022-10-09T13:51:32.131Z,6.27
2022-10-09T13:53:59.169Z,6.20
2022-10-09T13:56:26.329Z,6.17
2022-10-09T13:58:53.487Z,6.73
2022-10-09T14:01:20.809Z,6.40
2022-10-09T14:03:47.809Z,6.43
2022-10-09T14:06:14.851Z,6.77
2022-10-09T14:08:42.223Z,6.13
2022-10-09T14:11:09.402Z,5.43
2022-10-09T14:13:36.385Z,5.10
2022-10-09T14:16:06.954Z,5.60
2022-10-09T14:18:34.394Z,5.87
2022-10-09T14:21:11.223Z,5.97
2022-10-09T14:23:40.992Z,5.20
2022-10-09T14:26:08.175Z,5.20
2022-10-09T14:28:35.262Z,4.87
2022-10-09T14:31:08.358Z,5.10
2022-10-09T14:33:35.810Z,5.07
2022-10-09T14:36:18.707Z,5.10
2022-10-09T14:38:47.023Z,5.30
2022-10-09T14:41:15.292Z,4.83
2022-10-09T14:43:42.279Z,8.03
2022-10-09T14:46:17.331Z,19.93
2022-10-09T14:48:45.452Z,13.67
2022-10-09T14:51:15.279Z,14.23
2022-10-09T14:53:43.101Z,11.37
2022-10-09T14:56:13.042Z,9.63
2022-10-09T14:58:40.586Z,6.10
2022-10-09T15:01:08.255Z,9.87
2022-10-09T15:03:36.016Z,7.93
2022-10-09T15:06:06.584Z,6.77
2022-10-09T15:08:35.111Z,8.73
2022-10-09T15:11:02.624Z,6.90
2022-10-09T15:13:29.840Z,5.10
2022-10-09T15:16:04.699Z,5.37
2022-10-09T15:18:31.795Z,4.93
2022-10-09T15:20:59.811Z,6.17
2022-10-09T15:23:27.590Z,5.07
2022-10-09T15:25:56.842Z,5.67
2022-10-09T15:28:24.772Z,5.67
2022-10-09T15:30:57.744Z,4.97
2022-10-09T15:33:25.140Z,5.70
2022-10-09T15:35:53.271Z,5.30
2022-10-09T15:38:22.737Z,5.67
2022-10-09T15:40:52.753Z,5.20
2022-10-09T15:43:22.367Z,4.93
2022-10-09T15:45:49.999Z,4.93
2022-10-09T15:48:18.287Z,5.27
2022-10-09T15:50:46.677Z,5.60
2022-10-09T15:53:15.039Z,5.50
2022-10-09T15:55:44.294Z,5.23
2022-10-09T15:58:11.431Z,5.60
2022-10-09T16:00:40.496Z,5.10
2022-10-09T16:03:08.384Z,5.00
2022-10-09T16:05:40.297Z,5.60
2022-10-09T16:08:07.613Z,5.43
2022-10-09T16:10:34.617Z,5.60
2022-10-09T16:13:01.624Z,6.00
2022-10-09T16:15:28.652Z,6.43
2022-10-09T16:17:55.629Z,5.83
2022-10-09T16:20:22.653Z,6.20
2022-10-09T16:22:49.841Z,5.70
2022-10-09T16:25:17.113Z,5.90
2022-10-09T16:27:44.070Z,5.40
2022-10-09T16:30:13.833Z,6.33
2022-10-09T16:32:40.847Z,5.17
2022-10-09T16:35:08.552Z,5.47
2022-10-09T16:37:35.785Z,5.73
2022-10-09T16:40:03.075Z,5.23
2022-10-09T16:42:30.119Z,5.93
2022-10-09T16:44:58.047Z,6.30
2022-10-09T16:47:25.383Z,5.83
2022-10-09T16:49:52.496Z,5.60
2022-10-09T16:52:19.519Z,6.10
2022-10-09T16:54:49.610Z,6.30
2022-10-09T16:57:17.879Z,6.63
2022-10-09T16:59:45.555Z,7.33
2022-10-09T17:02:13.809Z,6.40
2022-10-09T17:04:41.282Z,6.53
2022-10-09T17:07:10.004Z,7.00
2022-10-09T17:09:37.804Z,6.57
2022-10-09T17:12:05.599Z,6.83
2022-10-09T17:14:32.820Z,7.03
2022-10-09T17:16:59.815Z,6.80
2022-10-09T17:19:26.848Z,7.70
2022-10-09T17:21:53.867Z,7.53
2022-10-09T17:24:20.889Z,8.27
2022-10-09T17:26:47.857Z,8.20
2022-10-09T17:29:15.082Z,7.77
2022-10-09T17:31:42.175Z,7.60
2022-10-09T17:34:10.998Z,6.97
2022-10-09T17:36:40.553Z,8.30
2022-10-09T17:39:11.028Z,7.53
2022-10-09T17:41:38.089Z,7.77
2022-10-09T17:44:05.456Z,7.13
2022-10-09T17:46:32.621Z,7.87
2022-10-09T17:49:00.149Z,7.23
2022-10-09T17:51:39.723Z,7.83
2022-10-09T17:54:16.946Z,6.93
2022-10-09T17:56:44.513Z,7.73
2022-10-09T17:59:11.721Z,7.07
2022-10-09T18:01:38.805Z,7.93
2022-10-09T18:04:05.842Z,7.50
2022-10-09T18:06:34.600Z,8.17
2022-10-09T18:09:02.091Z,7.80
2022-10-09T18:11:30.025Z,7.27
2022-10-09T18:13:57.500Z,7.07
2022-10-09T18:16:36.201Z,7.67
2022-10-09T18:19:22.389Z,8.67
2022-10-09T18:21:49.884Z,8.57
2022-10-09T18:24:17.094Z,7.50
2022-10-09T18:26:44.593Z,7.90
2022-10-09T18:29:11.734Z,8.37
2022-10-09T18:31:39.001Z,8.73
2022-10-09T18:34:06.011Z,8.90
2022-10-09T18:36:34.569Z,8.07
2022-10-09T18:39:11.617Z,8.93
2022-10-09T18:41:39.170Z,8.43
2022-10-09T18:44:07.504Z,7.47
2022-10-09T18:46:37.848Z,8.07
2022-10-09T18:49:09.515Z,7.80
2022-10-09T18:51:41.048Z,8.53
2022-10-09T18:54:08.813Z,8.57
2022-10-09T18:56:36.584Z,8.23
2022-10-09T18:59:13.759Z,8.90
2022-10-09T19:01:41.132Z,7.70
2022-10-09T19:04:08.647Z,7.70
2022-10-09T19:06:35.867Z,8.73
2022-10-09T19:09:03.754Z,7.97
2022-10-09T19:11:32.410Z,8.47
2022-10-09T19:14:00.702Z,7.70
2022-10-09T19:16:29.281Z,8.03
2022-10-09T19:18:56.823Z,8.67
2022-10-09T19:21:24.167Z,7.33
2022-10-09T19:23:52.957Z,6.90
2022-10-09T19:26:21.026Z,7.37
2022-10-09T19:28:48.086Z,6.67
2022-10-09T19:31:15.554Z,7.43
2022-10-09T19:33:42.955Z,7.37
2022-10-09T19:36:12.723Z,7.20
2022-10-09T19:38:40.061Z,6.50
2022-10-09T19:41:09.667Z,7.17
2022-10-09T19:43:36.981Z,6.57
2022-10-09T19:46:07.773Z,6.53
2022-10-09T19:48:35.432Z,6.70
2022-10-09T19:51:07.745Z,6.83
2022-10-09T19:53:34.998Z,6.77
2022-10-09T19:56:02.988Z,7.10
2022-10-09T19:58:30.632Z,7.20
2022-10-09T20:00:57.580Z,7.23
2022-10-09T20:03:24.632Z,7.10
2022-10-09T20:05:51.586Z,6.90
2022-10-09T20:08:18.561Z,7.40
2022-10-09T20:10:45.537Z,7.30
2022-10-09T20:13:14.134Z,7.80
2022-10-09T20:15:44.048Z,6.83
2022-10-09T20:18:11.084Z,7.17
2022-10-09T20:20:39.377Z,6.43
2022-10-09T20:23:06.350Z,7.90
2022-10-09T20:25:33.861Z,7.53
2022-10-09T20:28:00.804Z,6.37
2022-10-09T20:30:27.772Z,6.33
2022-10-09T20:32:59.194Z,7.43
2022-10-09T20:35:26.824Z,7.30
2022-10-09T20:37:53.789Z,7.20
2022-10-09T20:40:20.790Z,6.57
2022-10-09T20:42:48.087Z,7.13
2022-10-09T20:45:15.285Z,6.90
2022-10-09T20:47:42.289Z,7.03
2022-10-09T20:50:09.859Z,7.77
2022-10-09T20:52:36.858Z,6.87
2022-10-09T20:55:04.055Z,7.57
2022-10-09T20:57:31.059Z,7.20
2022-10-09T20:59:58.068Z,7.27
2022-10-09T21:02:25.084Z,7.30
2022-10-09T21:04:52.054Z,6.97
2022-10-09T21:07:18.989Z,7.33
2022-10-09T21:09:45.989Z,7.50
2022-10-09T21:12:12.960Z,7.03
2022-10-09T21:14:39.930Z,7.70
2022-10-09T21:17:06.982Z,7.07
2022-10-09T21:19:34.144Z,6.67
2022-10-09T21:22:01.137Z,7.53
2022-10-09T21:24:28.156Z,7.50
2022-10-09T21:26:55.089Z,6.93
2022-10-09T21:29:22.376Z,7.07
2022-10-09T21:31:49.336Z,7.47
2022-10-09T21:34:16.360Z,6.40
2022-10-09T21:37:08.457Z,6.83
2022-10-09T21:39:31.592Z,6.70
2022-10-09T21:41:59.313Z,6.70
2022-10-09T21:44:26.377Z,7.07
2022-10-09T21:46:53.361Z,7.00
2022-10-09T21:49:23.272Z,7.97
2022-10-09T21:51:50.779Z,7.13
2022-10-09T21:54:18.248Z,7.27
2022-10-09T21:56:45.385Z,7.37
2022-10-09T21:59:12.737Z,6.93
2022-10-09T22:01:39.741Z,6.83
2022-10-09T22:04:06.733Z,6.73
2022-10-09T22:06:33.744Z,6.67
2022-10-09T22:09:00.749Z,7.17
2022-10-09T22:11:27.816Z,6.80
2022-10-09T22:13:56.062Z,6.10
2022-10-09T22:16:23.568Z,6.87
2022-10-09T22:18:50.528Z,6.70
2022-10-09T22:21:19.483Z,6.70
2022-10-09T22:23:46.514Z,6.80
2022-10-09T22:26:17.149Z,7.10
2022-10-09T22:28:45.309Z,6.53
2022-10-09T22:31:17.511Z,7.33
2022-10-09T22:33:45.051Z,7.27
2022-10-09T22:36:17.127Z,7.77
2022-10-09T22:38:45.554Z,7.90
2022-10-09T22:41:17.861Z,7.57
2022-10-09T22:43:46.432Z,7.40
2022-10-09T22:46:17.471Z,7.33
2022-10-09T22:48:44.883Z,7.13
2022-10-09T22:51:14.635Z,6.57
2022-10-09T22:53:43.107Z,7.47
2022-10-09T22:56:13.746Z,7.03
2022-10-09T22:58:40.911Z,5.83
2022-10-09T23:01:12.066Z,6.10
2022-10-09T23:03:39.145Z,6.03
2022-10-09T23:06:09.977Z,6.37
2022-10-09T23:08:41.734Z,6.27
2022-10-09T23:11:09.393Z,6.50
2022-10-09T23:13:37.154Z,5.80
2022-10-09T23:16:05.811Z,6.13
2022-10-09T23:18:33.809Z,6.03
2022-10-09T23:21:12.577Z,5.00
2022-10-09T23:23:40.108Z,5.67
2022-10-09T23:26:09.204Z,4.83
2022-10-09T23:28:36.797Z,5.27
2022-10-09T23:31:14.670Z,5.37
2022-10-09T23:33:43.436Z,6.00
2022-10-09T23:36:13.300Z,5.57
2022-10-09T23:38:40.298Z,5.47
2022-10-09T23:41:11.600Z,5.50
2022-10-09T23:43:39.819Z,5.23
2022-10-09T23:46:10.502Z,4.80
2022-10-09T23:48:37.695Z,5.90
2022-10-09T23:51:06.540Z,5.70
2022-10-09T23:53:34.072Z,5.70
2022-10-09T23:56:01.282Z,5.93
2022-10-09T23:58:28.308Z,5.20
